createdAt,value
2023-01-03T00:00:36.441Z,990.11
2023-01-03T00:01:36.328Z,990.17
2023-01-03T00:02:36.332Z,990.19
2023-01-03T00:03:36.399Z,990.20
2023-01-03T00:04:36.318Z,990.21
2023-01-03T00:05:36.297Z,990.26
2023-01-03T00:06:36.289Z,990.27
2023-01-03T00:07:36.233Z,990.21
2023-01-03T00:08:36.238Z,990.20
2023-01-03T00:09:36.224Z,990.27
2023-01-03T00:10:36.222Z,990.36
2023-01-03T00:11:36.232Z,990.30
2023-01-03T00:12:36.196Z,990.31
2023-01-03T00:13:36.188Z,990.29
2023-01-03T00:14:36.178Z,990.33
2023-01-03T00:15:36.204Z,990.37
2023-01-03T00:16:36.312Z,990.38
2023-01-03T00:17:36.161Z,990.40
2023-01-03T00:18:36.150Z,990.43
2023-01-03T00:19:36.152Z,990.48
2023-01-03T00:20:36.139Z,990.47
2023-01-03T00:21:36.127Z,990.48
2023-01-03T00:22:36.110Z,990.44
2023-01-03T00:23:36.100Z,990.47
2023-01-03T00:24:36.093Z,990.47
2023-01-03T00:25:36.094Z,990.54
2023-01-03T00:26:36.069Z,990.50
2023-01-03T00:27:36.066Z,990.49
2023-01-03T00:28:36.052Z,990.49
2023-01-03T00:29:36.052Z,990.50
2023-01-03T00:30:36.082Z,990.45
2023-01-03T00:31:36.025Z,990.47
2023-01-03T00:32:36.018Z,990.47
2023-01-03T00:33:36.022Z,990.46
2023-01-03T00:34:36.093Z,990.48
2023-01-03T00:35:36.005Z,990.44
2023-01-03T00:36:35.980Z,990.47
2023-01-03T00:37:35.974Z,990.49
2023-01-03T00:38:35.963Z,990.46
2023-01-03T00:39:35.955Z,990.46
2023-01-03T00:40:35.955Z,990.49
2023-01-03T00:41:35.937Z,990.49
2023-01-03T00:42:35.928Z,990.53
2023-01-03T00:43:35.956Z,990.51
2023-01-03T00:44:35.914Z,990.52
2023-01-03T00:45:36.021Z,990.57
2023-01-03T00:46:36.030Z,990.49
2023-01-03T00:47:35.889Z,990.54
2023-01-03T00:48:35.881Z,990.54
2023-01-03T00:49:35.871Z,990.55
2023-01-03T00:50:35.876Z,990.63
2023-01-03T00:51:35.852Z,990.57
2023-01-03T00:52:35.851Z,990.61
2023-01-03T00:53:35.832Z,990.62
2023-01-03T00:54:35.833Z,990.58
2023-01-03T00:55:35.830Z,990.63
2023-01-03T00:56:35.895Z,990.58
2023-01-03T00:57:35.802Z,990.64
2023-01-03T00:58:35.789Z,990.66
2023-01-03T00:59:35.784Z,990.66
2023-01-03T01:00:35.787Z,990.73
2023-01-03T01:01:43.997Z,990.78
2023-01-03T01:02:37.936Z,990.70
2023-01-03T01:03:35.825Z,990.69
2023-01-03T01:04:35.743Z,990.79
2023-01-03T01:05:35.742Z,990.80
2023-01-03T01:06:35.720Z,990.75
2023-01-03T01:07:35.714Z,990.75
2023-01-03T01:08:35.705Z,990.78
2023-01-03T01:09:35.715Z,990.75
2023-01-03T01:10:35.708Z,990.78
2023-01-03T01:11:35.683Z,990.79
2023-01-03T01:12:35.673Z,990.78
2023-01-03T01:13:35.661Z,990.80
2023-01-03T01:14:35.650Z,990.85
2023-01-03T01:15:35.691Z,990.86
2023-01-03T01:16:36.638Z,990.89
2023-01-03T01:17:35.628Z,990.89
2023-01-03T01:18:35.627Z,990.89
2023-01-03T01:19:35.636Z,990.85
2023-01-03T01:20:35.622Z,990.85
2023-01-03T01:21:35.621Z,990.96
2023-01-03T01:22:35.598Z,990.91
2023-01-03T01:23:35.631Z,990.95
2023-01-03T01:24:35.583Z,990.98
2023-01-03T01:25:35.569Z,991.03
2023-01-03T01:26:35.553Z,991.00
2023-01-03T01:27:35.541Z,991.05
2023-01-03T01:28:35.560Z,991.09
2023-01-03T01:29:35.577Z,991.05
2023-01-03T01:30:35.584Z,990.95
2023-01-03T01:31:35.617Z,991.00
2023-01-03T01:32:35.501Z,991.04
2023-01-03T01:33:35.501Z,991.03
2023-01-03T01:34:35.475Z,991.04
2023-01-03T01:35:36.487Z,991.07
2023-01-03T01:36:35.477Z,991.13
2023-01-03T01:37:35.480Z,991.09
2023-01-03T01:38:35.480Z,991.12
2023-01-03T01:39:35.453Z,991.08
2023-01-03T01:40:35.460Z,991.07
2023-01-03T01:41:35.435Z,991.02
2023-01-03T01:42:35.420Z,991.03
2023-01-03T01:43:35.416Z,991.08
2023-01-03T01:44:35.403Z,991.11
2023-01-03T01:45:35.405Z,991.11
2023-01-03T01:46:35.491Z,991.10
2023-01-03T01:47:35.467Z,991.06
2023-01-03T01:48:36.368Z,991.15
2023-01-03T01:49:35.353Z,991.12
2023-01-03T01:50:35.365Z,991.12
2023-01-03T01:51:35.337Z,991.16
2023-01-03T01:52:35.332Z,991.13
2023-01-03T01:53:35.323Z,991.17
2023-01-03T01:54:35.311Z,991.12
2023-01-03T01:55:35.329Z,991.19
2023-01-03T01:56:35.296Z,991.15
2023-01-03T01:57:35.286Z,991.12
2023-01-03T01:58:35.279Z,991.10
2023-01-03T01:59:35.275Z,991.17
2023-01-03T02:00:35.268Z,991.12
2023-01-03T02:01:35.371Z,991.11
2023-01-03T02:02:35.343Z,991.12
2023-01-03T02:03:35.302Z,991.10
2023-01-03T02:04:35.227Z,991.08
2023-01-03T02:05:35.222Z,991.09
2023-01-03T02:06:35.218Z,991.03
2023-01-03T02:07:35.198Z,991.13
2023-01-03T02:08:35.188Z,991.09
2023-01-03T02:09:35.183Z,991.14
2023-01-03T02:10:35.255Z,991.12
2023-01-03T02:11:35.162Z,991.16
2023-01-03T02:12:35.162Z,991.14
2023-01-03T02:13:35.150Z,991.15
2023-01-03T02:14:35.139Z,991.21
2023-01-03T02:15:35.184Z,991.11
2023-01-03T02:16:35.184Z,991.06
2023-01-03T02:17:35.118Z,991.11
2023-01-03T02:18:35.109Z,991.15
2023-01-03T02:19:35.197Z,991.19
2023-01-03T02:20:35.093Z,991.24
2023-01-03T02:21:35.093Z,991.20
2023-01-03T02:22:35.070Z,991.21
2023-01-03T02:23:35.059Z,991.19
2023-01-03T02:24:35.056Z,991.18
2023-01-03T02:25:35.042Z,991.26
2023-01-03T02:26:36.040Z,991.21
2023-01-03T02:27:36.023Z,991.25
2023-01-03T02:28:35.020Z,991.28
2023-01-03T02:29:35.026Z,991.31
2023-01-03T02:30:35.004Z,991.29
2023-01-03T02:31:35.074Z,991.33
2023-01-03T02:32:34.986Z,991.26
2023-01-03T02:33:34.974Z,991.33
2023-01-03T02:34:34.965Z,991.35
2023-01-03T02:35:34.974Z,991.39
2023-01-03T02:36:34.960Z,991.36
2023-01-03T02:37:34.945Z,991.40
2023-01-03T02:38:34.948Z,991.35
2023-01-03T02:39:40.927Z,991.44
2023-01-03T02:40:35.926Z,991.42
2023-01-03T02:41:34.916Z,991.40
2023-01-03T02:42:34.917Z,991.38
2023-01-03T02:43:34.899Z,991.46
2023-01-03T02:44:34.881Z,991.45
2023-01-03T02:45:34.912Z,991.37
2023-01-03T02:46:35.031Z,991.35
2023-01-03T02:47:34.853Z,991.37
2023-01-03T02:48:34.843Z,991.31
2023-01-03T02:49:34.837Z,991.33
2023-01-03T02:50:34.826Z,991.37
2023-01-03T02:51:34.829Z,991.34
2023-01-03T02:52:34.805Z,991.39
2023-01-03T02:53:34.808Z,991.29
2023-01-03T02:54:34.788Z,991.35
2023-01-03T02:55:34.783Z,991.40
2023-01-03T02:56:34.783Z,991.34
2023-01-03T02:57:34.767Z,991.37
2023-01-03T02:58:34.753Z,991.40
2023-01-03T02:59:34.744Z,991.39
2023-01-03T03:00:34.751Z,991.40
2023-01-03T03:01:34.821Z,991.45
2023-01-03T03:02:34.905Z,991.36
2023-01-03T03:03:34.733Z,991.39
2023-01-03T03:04:34.697Z,991.41
2023-01-03T03:05:34.706Z,991.49
2023-01-03T03:06:34.697Z,991.48
2023-01-03T03:07:34.685Z,991.46
2023-01-03T03:08:34.669Z,991.48
2023-01-03T03:09:34.669Z,991.47
2023-01-03T03:10:34.648Z,991.54
2023-01-03T03:11:34.674Z,991.52
2023-01-03T03:12:34.656Z,991.56
2023-01-03T03:13:34.633Z,991.53
2023-01-03T03:14:34.624Z,991.54
2023-01-03T03:15:34.602Z,991.59
2023-01-03T03:16:34.706Z,991.63
2023-01-03T03:17:34.587Z,991.56
2023-01-03T03:18:34.586Z,991.57
2023-01-03T03:19:34.575Z,991.67
2023-01-03T03:20:34.556Z,991.70
2023-01-03T03:21:34.578Z,991.73
2023-01-03T03:22:34.556Z,991.65
2023-01-03T03:23:34.533Z,991.72
2023-01-03T03:24:34.522Z,991.68
2023-01-03T03:25:34.518Z,991.70
2023-01-03T03:26:34.520Z,991.74
2023-01-03T03:27:34.501Z,991.77
2023-01-03T03:28:34.501Z,991.80
2023-01-03T03:29:34.489Z,991.78
2023-01-03T03:30:34.612Z,991.70
2023-01-03T03:31:34.582Z,991.78
2023-01-03T03:32:34.452Z,991.73
2023-01-03T03:33:34.459Z,991.79
2023-01-03T03:34:34.463Z,991.77
2023-01-03T03:35:34.439Z,991.78
2023-01-03T03:36:34.444Z,991.84
2023-01-03T03:37:34.421Z,991.82
2023-01-03T03:38:34.406Z,991.79
2023-01-03T03:39:34.395Z,991.84
2023-01-03T03:40:34.388Z,991.83
2023-01-03T03:41:34.397Z,991.77
2023-01-03T03:42:34.401Z,991.83
2023-01-03T03:43:34.598Z,991.75
2023-01-03T03:44:34.453Z,991.77
2023-01-03T03:45:34.350Z,991.77
2023-01-03T03:46:34.405Z,991.79
2023-01-03T03:47:34.329Z,991.69
2023-01-03T03:48:34.322Z,991.77
2023-01-03T03:49:34.315Z,991.77
2023-01-03T03:50:34.334Z,991.81
2023-01-03T03:51:34.310Z,991.83
2023-01-03T03:52:34.295Z,991.86
2023-01-03T03:53:34.300Z,991.88
2023-01-03T03:54:34.282Z,991.80
2023-01-03T03:55:34.290Z,991.85
2023-01-03T03:56:34.333Z,991.82
2023-01-03T03:57:34.248Z,991.85
2023-01-03T03:58:34.242Z,991.85
2023-01-03T03:59:34.225Z,991.81
2023-01-03T04:00:34.221Z,991.85
2023-01-03T04:01:34.325Z,991.81
2023-01-03T04:02:34.241Z,991.77
2023-01-03T04:03:34.224Z,991.83
2023-01-03T04:04:34.184Z,991.79
2023-01-03T04:05:34.186Z,991.82
2023-01-03T04:06:34.673Z,991.83
2023-01-03T04:07:34.217Z,991.82
2023-01-03T04:08:34.270Z,991.86
2023-01-03T04:09:34.156Z,991.77
2023-01-03T04:10:37.657Z,991.87
2023-01-03T04:11:35.134Z,991.83
2023-01-03T04:12:34.113Z,991.85
2023-01-03T04:13:34.102Z,991.90
2023-01-03T04:14:34.094Z,991.82
2023-01-03T04:15:34.083Z,991.80
2023-01-03T04:16:34.184Z,991.78
2023-01-03T04:17:34.258Z,991.85
2023-01-03T04:18:34.281Z,991.85
2023-01-03T04:19:34.086Z,991.93
2023-01-03T04:20:34.046Z,991.83
2023-01-03T04:21:34.049Z,991.89
2023-01-03T04:22:34.033Z,991.91
2023-01-03T04:23:34.019Z,991.91
2023-01-03T04:24:34.013Z,991.92
2023-01-03T04:25:34.011Z,991.93
2023-01-03T04:26:34.005Z,991.89
2023-01-03T04:27:33.989Z,991.87
2023-01-03T04:28:33.979Z,991.89
2023-01-03T04:29:39.016Z,991.91
2023-01-03T04:30:36.627Z,991.91
2023-01-03T04:31:34.087Z,991.92
2023-01-03T04:32:33.940Z,991.92
2023-01-03T04:33:33.949Z,991.82
2023-01-03T04:34:33.925Z,991.81
2023-01-03T04:35:33.917Z,991.86
2023-01-03T04:36:33.924Z,991.78
2023-01-03T04:37:33.916Z,991.89
2023-01-03T04:38:33.881Z,991.86
2023-01-03T04:39:34.881Z,991.81
2023-01-03T04:40:33.874Z,991.77
2023-01-03T04:41:33.884Z,991.82
2023-01-03T04:42:34.535Z,991.78
2023-01-03T04:43:34.633Z,991.80
2023-01-03T04:44:33.834Z,991.83
2023-01-03T04:45:33.863Z,991.81
2023-01-03T04:46:33.832Z,991.84
2023-01-03T04:47:33.805Z,991.79
2023-01-03T04:48:33.801Z,991.80
2023-01-03T04:49:33.791Z,991.92
2023-01-03T04:50:33.782Z,991.82
2023-01-03T04:51:33.787Z,991.82
2023-01-03T04:52:33.762Z,991.87
2023-01-03T04:53:33.760Z,991.83
2023-01-03T04:54:33.887Z,991.89
2023-01-03T04:55:34.630Z,991.85
2023-01-03T04:56:33.750Z,991.83
2023-01-03T04:57:33.727Z,991.89
2023-01-03T04:58:33.714Z,991.87
2023-01-03T04:59:33.707Z,991.91
2023-01-03T05:00:33.701Z,991.88
2023-01-03T05:01:33.822Z,991.86
2023-01-03T05:02:33.703Z,991.96
2023-01-03T05:03:33.677Z,991.91
2023-01-03T05:04:33.717Z,991.88
2023-01-03T05:05:33.650Z,991.93
2023-01-03T05:06:33.717Z,991.95
2023-01-03T05:07:33.707Z,991.96
2023-01-03T05:08:33.623Z,992.04
2023-01-03T05:09:33.614Z,992.03
2023-01-03T05:10:33.606Z,992.08
2023-01-03T05:11:33.605Z,992.04
2023-01-03T05:12:33.599Z,991.98
2023-01-03T05:13:33.592Z,992.01
2023-01-03T05:14:33.584Z,992.05
2023-01-03T05:15:33.567Z,991.99
2023-01-03T05:16:33.622Z,991.99
2023-01-03T05:17:33.549Z,991.93
2023-01-03T05:18:33.550Z,991.91
2023-01-03T05:19:33.621Z,991.98
2023-01-03T05:20:33.537Z,992.00
2023-01-03T05:21:33.527Z,991.98
2023-01-03T05:22:33.511Z,992.01
2023-01-03T05:23:33.503Z,992.05
2023-01-03T05:24:33.491Z,992.05
2023-01-03T05:25:33.485Z,991.97
2023-01-03T05:26:33.474Z,992.01
2023-01-03T05:27:33.480Z,992.10
2023-01-03T05:28:33.459Z,992.03
2023-01-03T05:29:33.451Z,992.04
2023-01-03T05:30:33.465Z,992.07
2023-01-03T05:31:33.676Z,992.12
2023-01-03T05:32:34.594Z,992.03
2023-01-03T05:33:33.420Z,992.10
2023-01-03T05:34:33.411Z,992.08
2023-01-03T05:35:33.413Z,992.09
2023-01-03T05:36:33.388Z,992.09
2023-01-03T05:37:33.450Z,992.14
2023-01-03T05:38:33.385Z,992.14
2023-01-03T05:39:33.364Z,992.14
2023-01-03T05:40:39.297Z,992.16
2023-01-03T05:41:35.357Z,992.18
2023-01-03T05:42:33.356Z,992.17
2023-01-03T05:43:33.444Z,992.12
2023-01-03T05:44:33.371Z,992.15
2023-01-03T05:45:34.432Z,992.23
2023-01-03T05:46:33.454Z,992.16
2023-01-03T05:47:33.307Z,992.12
2023-01-03T05:48:33.285Z,992.14
2023-01-03T05:49:33.277Z,992.18
2023-01-03T05:50:33.271Z,992.08
2023-01-03T05:51:33.273Z,992.18
2023-01-03T05:52:33.260Z,992.17
2023-01-03T05:53:33.248Z,992.17
2023-01-03T05:54:33.236Z,992.18
2023-01-03T05:55:33.246Z,992.21
2023-01-03T05:56:33.217Z,992.22
2023-01-03T05:57:35.690Z,992.21
2023-01-03T05:58:34.250Z,992.26
2023-01-03T05:59:33.191Z,992.26
2023-01-03T06:00:33.183Z,992.26
2023-01-03T06:01:33.222Z,992.29
2023-01-03T06:02:33.218Z,992.27
2023-01-03T06:03:33.151Z,992.23
2023-01-03T06:04:33.248Z,992.30
2023-01-03T06:05:33.130Z,992.31
2023-01-03T06:06:34.178Z,992.33
2023-01-03T06:07:33.128Z,992.35
2023-01-03T06:08:33.111Z,992.30
2023-01-03T06:09:33.105Z,992.32
2023-01-03T06:10:33.088Z,992.31
2023-01-03T06:11:33.093Z,992.32
2023-01-03T06:12:33.104Z,992.30
2023-01-03T06:13:33.069Z,992.32
2023-01-03T06:14:33.061Z,992.39
2023-01-03T06:15:33.048Z,992.35
2023-01-03T06:16:33.154Z,992.34
2023-01-03T06:17:34.065Z,992.35
2023-01-03T06:18:33.072Z,992.36
2023-01-03T06:19:33.143Z,992.35
2023-01-03T06:20:33.002Z,992.35
2023-01-03T06:21:33.009Z,992.33
2023-01-03T06:22:33.000Z,992.39
2023-01-03T06:23:32.978Z,992.35
2023-01-03T06:24:32.963Z,992.39
2023-01-03T06:25:32.953Z,992.32
2023-01-03T06:26:32.945Z,992.34
2023-01-03T06:27:32.949Z,992.36
2023-01-03T06:28:32.940Z,992.34
2023-01-03T06:29:32.935Z,992.37
2023-01-03T06:30:33.054Z,992.38
2023-01-03T06:31:33.079Z,992.35
2023-01-03T06:32:32.920Z,992.31
2023-01-03T06:33:32.898Z,992.38
2023-01-03T06:34:32.888Z,992.37
2023-01-03T06:35:32.867Z,992.36
2023-01-03T06:36:32.856Z,992.39
2023-01-03T06:37:32.891Z,992.43
2023-01-03T06:38:32.838Z,992.41
2023-01-03T06:39:32.829Z,992.40
2023-01-03T06:40:39.397Z,992.45
2023-01-03T06:41:34.817Z,992.50
2023-01-03T06:42:32.870Z,992.51
2023-01-03T06:43:32.981Z,992.57
2023-01-03T06:44:32.783Z,992.56
2023-01-03T06:45:32.812Z,992.55
2023-01-03T06:46:32.939Z,992.53
2023-01-03T06:47:32.765Z,992.54
2023-01-03T06:48:32.747Z,992.54
2023-01-03T06:49:32.737Z,992.60
2023-01-03T06:50:32.742Z,992.59
2023-01-03T06:51:32.720Z,992.68
2023-01-03T06:52:32.722Z,992.69
2023-01-03T06:53:32.704Z,992.71
2023-01-03T06:54:32.698Z,992.69
2023-01-03T06:55:32.778Z,992.68
2023-01-03T06:56:32.868Z,992.65
2023-01-03T06:57:32.686Z,992.74
2023-01-03T06:58:32.700Z,992.75
2023-01-03T06:59:32.683Z,992.73
2023-01-03T07:00:32.652Z,992.74
2023-01-03T07:01:32.702Z,992.74
2023-01-03T07:02:32.738Z,992.78
2023-01-03T07:03:32.628Z,992.87
2023-01-03T07:04:32.647Z,992.76
2023-01-03T07:05:32.599Z,992.79
2023-01-03T07:06:32.593Z,992.77
2023-01-03T07:07:33.532Z,992.78
2023-01-03T07:08:33.694Z,992.79
2023-01-03T07:09:32.565Z,992.80
2023-01-03T07:10:32.555Z,992.74
2023-01-03T07:11:32.561Z,992.81
2023-01-03T07:12:32.559Z,992.79
2023-01-03T07:13:32.524Z,992.85
2023-01-03T07:14:32.531Z,992.86
2023-01-03T07:15:32.606Z,992.84
2023-01-03T07:16:32.572Z,992.88
2023-01-03T07:17:32.509Z,992.89
2023-01-03T07:18:32.487Z,992.84
2023-01-03T07:19:33.509Z,992.96
2023-01-03T07:20:33.074Z,992.89
2023-01-03T07:21:32.467Z,992.89
2023-01-03T07:22:32.462Z,992.91
2023-01-03T07:23:32.447Z,992.91
2023-01-03T07:24:32.435Z,992.89
2023-01-03T07:25:32.427Z,992.83
2023-01-03T07:26:32.415Z,992.88
2023-01-03T07:27:32.420Z,992.85
2023-01-03T07:28:32.395Z,992.86
2023-01-03T07:29:32.394Z,992.88
2023-01-03T07:30:32.382Z,992.94
2023-01-03T07:31:32.637Z,992.90
2023-01-03T07:32:32.391Z,992.89
2023-01-03T07:33:32.360Z,992.94
2023-01-03T07:34:32.371Z,992.97
2023-01-03T07:35:32.345Z,992.94
2023-01-03T07:36:32.340Z,993.03
2023-01-03T07:37:32.337Z,993.01
2023-01-03T07:38:32.361Z,993.04
2023-01-03T07:39:32.303Z,993.02
2023-01-03T07:40:32.325Z,993.03
2023-01-03T07:41:32.291Z,993.04
2023-01-03T07:42:32.295Z,993.06
2023-01-03T07:43:32.313Z,993.04
2023-01-03T07:44:33.065Z,993.05
2023-01-03T07:45:32.252Z,993.06
2023-01-03T07:46:32.294Z,993.16
2023-01-03T07:47:32.248Z,993.09
2023-01-03T07:48:32.287Z,993.12
2023-01-03T07:49:32.225Z,993.06
2023-01-03T07:50:32.209Z,993.15
2023-01-03T07:51:32.202Z,993.11
2023-01-03T07:52:32.203Z,993.20
2023-01-03T07:53:32.189Z,993.12
2023-01-03T07:54:32.175Z,993.12
2023-01-03T07:55:32.387Z,993.15
2023-01-03T07:56:32.306Z,993.15
2023-01-03T07:57:32.154Z,993.15
2023-01-03T07:58:32.213Z,993.09
2023-01-03T07:59:32.139Z,993.15
2023-01-03T08:00:32.157Z,993.11
2023-01-03T08:01:32.202Z,993.16
2023-01-03T08:02:32.226Z,993.17
2023-01-03T08:03:32.104Z,993.18
2023-01-03T08:04:32.126Z,993.22
2023-01-03T08:05:32.080Z,993.23
2023-01-03T08:06:32.094Z,993.24
2023-01-03T08:07:32.271Z,993.25
2023-01-03T08:08:32.082Z,993.28
2023-01-03T08:09:32.047Z,993.26
2023-01-03T08:10:32.045Z,993.29
2023-01-03T08:11:32.040Z,993.23
2023-01-03T08:12:32.032Z,993.33
2023-01-03T08:13:32.002Z,993.32
2023-01-03T08:14:33.009Z,993.26
2023-01-03T08:15:32.165Z,993.34
2023-01-03T08:16:32.167Z,993.30
2023-01-03T08:17:31.990Z,993.32
2023-01-03T08:18:31.968Z,993.36
2023-01-03T08:19:31.961Z,993.35
2023-01-03T08:20:31.967Z,993.36
2023-01-03T08:21:32.938Z,993.39
2023-01-03T08:22:31.945Z,993.35
2023-01-03T08:23:31.925Z,993.33
2023-01-03T08:24:31.918Z,993.34
2023-01-03T08:25:31.910Z,993.35
2023-01-03T08:26:31.905Z,993.38
2023-01-03T08:27:31.982Z,993.33
2023-01-03T08:28:32.044Z,993.35
2023-01-03T08:29:31.875Z,993.38
2023-01-03T08:30:31.871Z,993.33
2023-01-03T08:31:31.955Z,993.37
2023-01-03T08:32:31.931Z,993.38
2023-01-03T08:33:31.844Z,993.38
2023-01-03T08:34:31.844Z,993.45
2023-01-03T08:35:31.825Z,993.42
2023-01-03T08:36:31.813Z,993.38
2023-01-03T08:37:31.813Z,993.41
2023-01-03T08:38:31.812Z,993.45
2023-01-03T08:39:31.816Z,993.46
2023-01-03T08:40:36.715Z,993.42
2023-01-03T08:41:32.791Z,993.40
2023-01-03T08:42:31.773Z,993.39
2023-01-03T08:43:31.777Z,993.34
2023-01-03T08:44:31.814Z,993.39
2023-01-03T08:45:31.749Z,993.39
2023-01-03T08:46:31.795Z,993.38
2023-01-03T08:47:31.741Z,993.38
2023-01-03T08:48:31.742Z,993.39
2023-01-03T08:49:31.709Z,993.35
2023-01-03T08:50:31.703Z,993.39
2023-01-03T08:51:31.708Z,993.46
2023-01-03T08:52:34.984Z,993.51
2023-01-03T08:53:32.693Z,993.46
2023-01-03T08:54:31.670Z,993.35
2023-01-03T08:55:31.661Z,993.41
2023-01-03T08:56:31.652Z,993.33
2023-01-03T08:57:31.639Z,993.32
2023-01-03T08:58:31.659Z,993.42
2023-01-03T08:59:31.629Z,993.52
2023-01-03T09:00:31.613Z,993.51
2023-01-03T09:01:31.704Z,993.55
2023-01-03T09:02:31.794Z,993.49
2023-01-03T09:03:31.814Z,993.40
2023-01-03T09:04:31.577Z,993.43
2023-01-03T09:05:31.578Z,993.49
2023-01-03T09:06:31.569Z,993.51
2023-01-03T09:07:31.569Z,993.59
2023-01-03T09:08:31.574Z,993.58
2023-01-03T09:09:31.528Z,993.59
2023-01-03T09:10:31.549Z,993.59
2023-01-03T09:11:31.525Z,993.60
2023-01-03T09:12:31.509Z,993.58
2023-01-03T09:13:31.512Z,993.59
2023-01-03T09:14:31.493Z,993.60
2023-01-03T09:15:31.473Z,993.64
2023-01-03T09:16:31.524Z,993.64
2023-01-03T09:17:31.469Z,993.60
2023-01-03T09:18:31.455Z,993.57
2023-01-03T09:19:31.441Z,993.47
2023-01-03T09:20:31.437Z,993.51
2023-01-03T09:21:31.444Z,993.50
2023-01-03T09:22:31.421Z,993.45
2023-01-03T09:23:31.404Z,993.44
2023-01-03T09:24:31.389Z,993.39
2023-01-03T09:25:36.815Z,993.41
2023-01-03T09:26:34.003Z,993.39
2023-01-03T09:27:31.525Z,993.35
2023-01-03T09:28:31.364Z,993.30
2023-01-03T09:29:31.331Z,993.28
2023-01-03T09:30:31.326Z,993.27
2023-01-03T09:31:32.212Z,993.27
2023-01-03T09:32:31.324Z,993.20
2023-01-03T09:33:31.318Z,993.31
2023-01-03T09:34:31.336Z,993.33
2023-01-03T09:35:31.276Z,993.25
2023-01-03T09:36:31.286Z,993.23
2023-01-03T09:37:31.444Z,993.20
2023-01-03T09:38:31.271Z,993.15
2023-01-03T09:39:31.314Z,993.14
2023-01-03T09:40:31.247Z,993.14
2023-01-03T09:41:31.226Z,993.18
2023-01-03T09:42:31.218Z,993.12
2023-01-03T09:43:31.217Z,993.12
2023-01-03T09:44:31.199Z,993.08
2023-01-03T09:45:31.183Z,993.12
2023-01-03T09:46:31.269Z,993.03
2023-01-03T09:47:31.165Z,993.08
2023-01-03T09:48:31.173Z,993.05
2023-01-03T09:49:31.144Z,993.07
2023-01-03T09:50:50.844Z,993.11
2023-01-03T09:51:33.284Z,993.04
2023-01-03T09:52:31.127Z,993.03
2023-01-03T09:53:31.129Z,992.99
2023-01-03T09:54:31.105Z,992.98
2023-01-03T09:55:31.143Z,992.94
2023-01-03T09:56:31.077Z,992.91
2023-01-03T09:57:31.065Z,992.94
2023-01-03T09:58:31.068Z,992.89
2023-01-03T09:59:31.066Z,992.84
2023-01-03T10:00:31.093Z,992.80
2023-01-03T10:01:31.191Z,992.81
2023-01-03T10:02:31.213Z,992.80
2023-01-03T10:03:31.255Z,992.81
2023-01-03T10:04:31.037Z,992.76
2023-01-03T10:05:30.991Z,992.79
2023-01-03T10:06:30.999Z,992.75
2023-01-03T10:07:30.976Z,992.70
2023-01-03T10:08:30.973Z,992.71
2023-01-03T10:09:31.543Z,992.76
2023-01-03T10:10:30.945Z,992.73
2023-01-03T10:11:30.956Z,992.60
2023-01-03T10:12:30.925Z,992.66
2023-01-03T10:13:30.949Z,992.69
2023-01-03T10:14:30.913Z,992.69
2023-01-03T10:15:30.907Z,992.67
2023-01-03T10:16:30.990Z,992.69
2023-01-03T10:17:30.902Z,992.68
2023-01-03T10:18:30.885Z,992.51
2023-01-03T10:19:30.870Z,992.54
2023-01-03T10:20:33.261Z,992.65
2023-01-03T10:21:31.940Z,992.70
2023-01-03T10:22:30.847Z,992.73
2023-01-03T10:23:30.848Z,992.75
2023-01-03T10:24:30.829Z,992.78
2023-01-03T10:25:30.815Z,992.84
2023-01-03T10:26:32.944Z,992.82
2023-01-03T10:27:31.800Z,992.78
2023-01-03T10:28:30.812Z,992.86
2023-01-03T10:29:30.779Z,992.85
2023-01-03T10:30:30.767Z,992.86
2023-01-03T10:31:30.784Z,992.86
2023-01-03T10:32:30.834Z,992.89
2023-01-03T10:33:30.776Z,992.93
2023-01-03T10:34:30.732Z,992.90
2023-01-03T10:35:30.723Z,992.95
2023-01-03T10:36:30.718Z,992.84
2023-01-03T10:37:30.711Z,992.89
2023-01-03T10:38:30.708Z,992.90
2023-01-03T10:39:30.693Z,992.91
2023-01-03T10:40:30.800Z,992.90
2023-01-03T10:41:30.664Z,992.95
2023-01-03T10:42:30.682Z,992.95
2023-01-03T10:43:30.668Z,992.94
2023-01-03T10:44:30.685Z,993.02
2023-01-03T10:45:34.677Z,992.99
2023-01-03T10:46:32.707Z,992.96
2023-01-03T10:47:30.608Z,992.95
2023-01-03T10:48:36.259Z,993.01
2023-01-03T10:49:32.596Z,993.00
2023-01-03T10:50:30.611Z,993.04
2023-01-03T10:51:30.566Z,993.00
2023-01-03T10:52:30.726Z,993.03
2023-01-03T10:53:30.622Z,993.09
2023-01-03T10:54:30.536Z,993.02
2023-01-03T10:55:30.539Z,993.04
2023-01-03T10:56:30.544Z,993.04
2023-01-03T10:57:30.522Z,993.04
2023-01-03T10:58:36.077Z,993.00
2023-01-03T10:59:32.581Z,992.95
2023-01-03T11:00:30.562Z,992.96
2023-01-03T11:01:30.633Z,993.01
2023-01-03T11:02:30.608Z,993.00
2023-01-03T11:03:30.509Z,992.95
2023-01-03T11:04:30.441Z,993.00
2023-01-03T11:05:30.425Z,992.95
2023-01-03T11:06:30.441Z,992.95
2023-01-03T11:07:30.407Z,992.92
2023-01-03T11:08:30.409Z,993.03
2023-01-03T11:09:30.379Z,992.98
2023-01-03T11:10:30.425Z,992.97
2023-01-03T11:11:30.371Z,993.06
2023-01-03T11:12:30.507Z,993.07
2023-01-03T11:13:30.364Z,993.03
2023-01-03T11:14:30.340Z,993.01
2023-01-03T11:15:37.559Z,992.95
2023-01-03T11:16:32.340Z,993.02
2023-01-03T11:17:30.302Z,992.96
2023-01-03T11:18:30.355Z,993.03
2023-01-03T11:19:30.287Z,993.01
2023-01-03T11:20:30.275Z,993.08
2023-01-03T11:21:30.269Z,993.05
2023-01-03T11:22:35.547Z,993.09
2023-01-03T11:23:32.257Z,993.11
2023-01-03T11:24:30.254Z,993.04
2023-01-03T11:25:30.223Z,993.02
2023-01-03T11:26:30.218Z,993.08
2023-01-03T11:27:30.207Z,993.02
2023-01-03T11:28:30.211Z,993.08
2023-01-03T11:29:30.184Z,993.04
2023-01-03T11:30:30.181Z,993.05
2023-01-03T11:31:30.187Z,993.00
2023-01-03T11:32:30.160Z,992.94
2023-01-03T11:33:30.144Z,992.93
2023-01-03T11:34:48.135Z,992.98
2023-01-03T11:35:32.135Z,992.96
2023-01-03T11:36:30.189Z,992.86
2023-01-03T11:37:31.070Z,992.84
2023-01-03T11:38:30.217Z,992.79
2023-01-03T11:39:30.159Z,992.85
2023-01-03T11:40:30.081Z,992.87
2023-01-03T11:41:30.134Z,992.92
2023-01-03T11:42:30.055Z,992.90
2023-01-03T11:43:30.058Z,992.92
2023-01-03T11:44:30.055Z,992.98
2023-01-03T11:45:30.045Z,993.01
2023-01-03T11:46:30.075Z,992.92
2023-01-03T11:47:30.078Z,992.89
2023-01-03T11:48:29.994Z,992.81
2023-01-03T11:49:31.008Z,992.84
2023-01-03T11:50:29.983Z,992.79
2023-01-03T11:51:29.973Z,992.79
2023-01-03T11:52:29.963Z,992.75
2023-01-03T11:53:29.954Z,992.74
2023-01-03T11:54:29.960Z,992.75
2023-01-03T11:55:29.946Z,992.75
2023-01-03T11:56:29.941Z,992.87
2023-01-03T11:57:30.520Z,992.87
2023-01-03T11:58:30.187Z,992.84
2023-01-03T11:59:29.997Z,992.88
2023-01-03T12:00:29.891Z,992.78
2023-01-03T12:01:33.987Z,992.80
2023-01-03T12:02:31.887Z,992.76
2023-01-03T12:03:30.004Z,992.71
2023-01-03T12:04:29.888Z,992.76
2023-01-03T12:05:29.831Z,992.69
2023-01-03T12:06:29.828Z,992.74
2023-01-03T12:08:31.812Z,992.62
2023-01-03T12:09:29.846Z,992.69
2023-01-03T12:10:29.874Z,992.73
2023-01-03T12:11:29.793Z,992.66
2023-01-03T12:12:29.775Z,992.65
2023-01-03T12:13:30.097Z,992.63
2023-01-03T12:14:29.777Z,992.65
2023-01-03T12:15:29.817Z,992.56
2023-01-03T12:16:29.795Z,992.59
2023-01-03T12:17:29.739Z,992.60
2023-01-03T12:18:29.726Z,992.59
2023-01-03T12:19:30.043Z,992.58
2023-01-03T12:20:29.704Z,992.57
2023-01-03T12:21:29.697Z,992.57
2023-01-03T12:22:29.680Z,992.52
2023-01-03T12:23:29.677Z,992.62
2023-01-03T12:24:29.668Z,992.60
2023-01-03T12:25:29.679Z,992.58
2023-01-03T12:26:29.673Z,992.55
2023-01-03T12:27:29.631Z,992.62
2023-01-03T12:28:29.620Z,992.61
2023-01-03T12:29:29.631Z,992.71